Main page
METAR-TAF:

METAR-TAF

Airports :

Barcelona–El Prat Airport

Barcelona, Spain

latitude: 41-17N, longitude: 002-04E, elevation: 4 m

Current weather observation

The report was made 36 minutes ago, at 18:30 UTC
Wind 1 kt from the West
Temperature 12°C
Humidity 82%
Pressure 1013 hPa
Visibility 10 km or more
no clouds below 1500 m and no cumulonimbus

METAR: LEBL 211830Z 28001KT CAVOK 12/09 Q1013 NOSIG

Time: 20:06 (19:06 UTC)

Forecast

The report was made 2 hours and 6 minutes ago, at 17:00 UTC
Forecast valid from 21 at 18 UTC to 22 at 18 UTC
Wind 8 kt from the North/Northwest
Visibility 10 km or more
Few clouds at a height of 2500 ft

TAF: LEBL 211700Z 2118/2218 34008KT 9999 FEW025 TX18/2212Z TN09/2206Z

Weather observations and forecasts of more than 4000 airports (METAR and TAF reports).

The available stations are represented by yellow and red dots on the map.

Hover mouse over dot to see the name of the station.

Then click to see weather observations and forecasts.

To change the map : click on the green buttons with a black cross to zoom in, on the green button with a dash to zoom out, or on the green arrows for adjacent maps.


METAR-TAF: